Time,TemperatureF,DewpointF,PressureIn,WindDirection,WindDirectionDegrees,WindSpeedMPH,WindSpeedGustMPH,Humidity,HourlyPrecipIn,Conditions,Clouds,dailyrainin,SoftwareType,DateUTC
2013-07-29 00:04:00,76.7,72.8,29.97,West,270,0.0,0.0,88,0.00,,,0.00,WSDL version 420,2013-07-29 04:04:00,
2013-07-29 00:09:00,76.6,72.7,29.97,West,270,0.0,0.0,88,0.00,,,0.00,WSDL version 420,2013-07-29 04:09:00,
2013-07-29 00:14:00,76.6,72.7,29.94,West,270,0.0,0.0,88,0.00,,,0.00,WSDL version 420,2013-07-29 04:14:00,
2013-07-29 00:19:00,76.5,72.6,29.94,NNW,338,0.0,0.0,88,0.00,,,0.00,WSDL version 420,2013-07-29 04:19:00,
2013-07-29 00:24:00,76.5,72.6,29.94,North,360,0.0,0.0,88,0.00,,,0.00,WSDL version 420,2013-07-29 04:24:00,
2013-07-29 00:29:00,76.4,72.5,29.97,North,360,0.0,0.0,88,0.00,,,0.00,WSDL version 420,2013-07-29 04:29:00,
2013-07-29 00:34:00,76.3,72.4,29.97,NNW,343,0.0,0.9,88,0.00,,,0.00,WSDL version 420,2013-07-29 04:34:00,
2013-07-29 00:39:00,76.3,72.4,29.97,North,8,0.0,0.9,88,0.00,,,0.00,WSDL version 420,2013-07-29 04:39:00,
2013-07-29 00:44:00,76.3,72.1,29.94,NE,45,0.0,0.0,87,0.00,,,0.00,WSDL version 420,2013-07-29 04:44:00,
2013-07-29 00:49:00,76.3,72.2,29.94,NE,45,0.0,0.0,88,0.00,,,0.00,WSDL version 420,2013-07-29 04:49:00,
2013-07-29 00:54:00,76.1,72.2,29.94,NNE,23,0.0,0.0,87,0.00,,,0.00,WSDL version 420,2013-07-29 04:54:00,
2013-07-29 00:59:00,76.1,72.2,29.97,North,360,0.0,0.0,88,0.00,,,0.00,WSDL version 420,2013-07-29 04:59:00,
2013-07-29 01:04:00,76.1,72.2,29.97,North,360,0.0,0.0,88,0.00,,,0.00,WSDL version 420,2013-07-29 05:04:00,
2013-07-29 01:09:00,76.0,72.1,29.97,North,360,0.0,0.0,88,0.00,,,0.00,WSDL version 420,2013-07-29 05:09:00,
2013-07-29 01:14:00,75.9,72.0,29.94,North,360,0.0,0.0,88,0.00,,,0.00,WSDL version 420,2013-07-29 05:14:00,
2013-07-29 01:19:00,75.9,72.0,29.94,North,360,0.0,0.0,88,0.00,,,0.00,WSDL version 420,2013-07-29 05:19:00,
2013-07-29 01:24:00,75.8,71.9,29.94,North,360,0.0,0.0,88,0.00,,,0.00,WSDL version 420,2013-07-29 05:24:00,
2013-07-29 01:29:00,75.7,71.9,29.94,North,360,0.0,0.0,88,0.00,,,0.00,WSDL version 420,2013-07-29 05:29:00,
2013-07-29 01:34:00,75.7,71.9,29.94,North,360,0.0,0.0,88,0.00,,,0.00,WSDL version 420,2013-07-29 05:34:00,
2013-07-29 01:39:00,75.7,71.9,29.94,North,360,0.0,0.0,88,0.00,,,0.00,WSDL version 420,2013-07-29 05:39:00,
2013-07-29 01:44:00,75.6,71.7,29.97,North,360,0.0,0.0,88,0.00,,,0.00,WSDL version 420,2013-07-29 05:44:00,
2013-07-29 01:49:00,75.6,71.7,29.97,North,360,0.0,0.0,88,0.00,,,0.00,WSDL version 420,2013-07-29 05:49:00,
2013-07-29 01:54:00,75.6,71.7,29.97,North,360,0.0,0.0,88,0.00,,,0.00,WSDL version 420,2013-07-29 05:54:00,
2013-07-29 01:59:00,75.6,71.7,29.97,North,360,0.0,0.0,88,0.00,,,0.00,WSDL version 420,2013-07-29 05:59:00,
2013-07-29 02:04:00,75.6,71.7,29.97,North,360,0.0,0.0,88,0.00,,,0.00,WSDL version 420,2013-07-29 06:04:00,
2013-07-29 02:09:00,75.6,71.7,29.97,North,360,0.0,0.0,88,0.00,,,0.00,WSDL version 420,2013-07-29 06:09:00,
2013-07-29 02:14:00,75.5,71.6,29.97,North,360,0.0,0.0,88,0.00,,,0.00,WSDL version 420,2013-07-29 06:14:00,
2013-07-29 02:19:00,75.4,71.5,29.97,North,360,0.0,0.0,88,0.00,,,0.00,WSDL version 420,2013-07-29 06:19:00,
2013-07-29 02:24:00,75.4,71.5,29.97,North,360,0.0,0.0,88,0.00,,,0.00,WSDL version 420,2013-07-29 06:24:00,
2013-07-29 02:29:00,75.2,71.3,29.97,North,360,0.0,0.0,88,0.00,,,0.00,WSDL version 420,2013-07-29 06:29:00,
2013-07-29 02:34:00,75.2,71.5,29.97,North,360,0.0,0.0,89,0.00,,,0.00,WSDL version 420,2013-07-29 06:34:00,
2013-07-29 02:39:00,75.2,71.7,29.97,North,360,0.0,0.0,89,0.00,,,0.00,WSDL version 420,2013-07-29 06:39:00,
2013-07-29 02:44:00,75.2,71.7,29.97,North,360,0.0,0.0,89,0.00,,,0.00,WSDL version 420,2013-07-29 06:44:00,
2013-07-29 02:49:00,75.1,71.6,29.97,North,360,0.0,0.0,89,0.00,,,0.00,WSDL version 420,2013-07-29 06:49:00,
2013-07-29 02:54:00,75.0,71.5,29.97,North,360,0.0,0.0,89,0.00,,,0.00,WSDL version 420,2013-07-29 06:54:00,
2013-07-29 02:59:00,75.0,71.9,29.94,North,360,0.0,0.0,90,0.00,,,0.00,WSDL version 420,2013-07-29 06:59:00,
2013-07-29 03:04:00,75.0,71.9,29.94,North,360,0.0,0.0,90,0.00,,,0.00,WSDL version 420,2013-07-29 07:04:00,
2013-07-29 03:09:00,74.9,71.8,29.94,North,360,0.0,0.0,90,0.00,,,0.00,WSDL version 420,2013-07-29 07:09:00,
2013-07-29 03:14:00,74.8,71.7,29.94,North,360,0.0,0.0,90,0.00,,,0.00,WSDL version 420,2013-07-29 07:14:00,
2013-07-29 03:19:00,75.0,71.9,29.94,WSW,257,0.0,0.0,90,0.00,,,0.00,WSDL version 420,2013-07-29 07:19:00,
2013-07-29 03:24:00,74.9,71.8,29.94,SW,225,0.0,0.0,90,0.00,,,0.00,WSDL version 420,2013-07-29 07:24:00,
2013-07-29 03:29:00,74.9,71.8,29.94,SW,225,0.0,0.0,90,0.00,,,0.00,WSDL version 420,2013-07-29 07:29:00,
2013-07-29 03:34:00,74.8,71.7,29.94,SW,225,0.0,0.0,90,0.00,,,0.00,WSDL version 420,2013-07-29 07:34:00,
2013-07-29 03:39:00,74.8,71.7,29.94,SW,225,0.0,0.0,90,0.00,,,0.00,WSDL version 420,2013-07-29 07:39:00,
2013-07-29 03:44:00,74.8,71.7,29.94,SW,225,0.0,0.0,90,0.00,,,0.00,WSDL version 420,2013-07-29 07:44:00,
2013-07-29 03:49:00,74.8,71.7,29.94,SW,225,0.0,0.0,90,0.00,,,0.00,WSDL version 420,2013-07-29 07:49:00,
2013-07-29 03:54:00,74.8,71.7,29.94,SW,225,0.0,0.0,90,0.00,,,0.00,WSDL version 420,2013-07-29 07:54:00,
2013-07-29 03:59:00,74.8,71.7,29.94,SW,225,0.0,0.0,90,0.00,,,0.00,WSDL version 420,2013-07-29 07:59:00,
2013-07-29 04:04:00,74.8,71.9,29.94,SW,225,0.0,0.0,91,0.00,,,0.00,WSDL version 420,2013-07-29 08:04:00,
2013-07-29 04:09:00,74.8,72.0,29.94,SW,225,0.0,0.0,91,0.00,,,0.00,WSDL version 420,2013-07-29 08:09:00,
2013-07-29 04:14:00,74.8,72.1,29.94,SW,225,0.0,0.0,91,0.00,,,0.00,WSDL version 420,2013-07-29 08:14:00,
2013-07-29 04:24:00,74.7,71.9,29.94,SW,225,0.0,0.0,91,0.00,,,0.00,WSDL version 420,2013-07-29 08:24:00,
2013-07-29 04:29:00,74.7,71.9,29.94,SW,225,0.0,0.0,91,0.00,,,0.00,WSDL version 420,2013-07-29 08:29:00,
2013-07-29 04:34:00,74.8,72.1,29.94,SW,225,0.0,0.0,91,0.00,,,0.00,WSDL version 420,2013-07-29 08:34:00,
2013-07-29 04:39:00,74.8,72.1,29.94,SW,225,0.0,0.0,91,0.00,,,0.00,WSDL version 420,2013-07-29 08:39:00,
2013-07-29 04:44:00,74.8,72.0,29.94,SW,225,0.0,0.0,91,0.00,,,0.00,WSDL version 420,2013-07-29 08:44:00,
2013-07-29 04:49:00,74.7,71.9,29.94,SW,225,0.0,0.0,91,0.00,,,0.00,WSDL version 420,2013-07-29 08:49:00,
2013-07-29 04:54:00,74.7,71.9,29.94,SW,225,0.0,0.0,91,0.00,,,0.00,WSDL version 420,2013-07-29 08:54:00,
2013-07-29 04:59:00,74.7,71.9,29.94,SW,225,0.0,0.0,91,0.00,,,0.00,WSDL version 420,2013-07-29 08:59:00,
2013-07-29 05:04:00,74.7,71.9,29.94,SW,225,0.0,0.0,91,0.00,,,0.00,WSDL version 420,2013-07-29 09:04:00,
2013-07-29 05:09:00,74.6,71.8,29.94,SW,225,0.0,0.0,91,0.00,,,0.00,WSDL version 420,2013-07-29 09:09:00,
2013-07-29 05:14:00,74.5,71.7,29.94,SW,225,0.0,0.0,91,0.00,,,0.00,WSDL version 420,2013-07-29 09:14:00,
2013-07-29 05:19:00,74.5,71.7,29.94,SW,225,0.0,0.0,91,0.00,,,0.00,WSDL version 420,2013-07-29 09:19:00,
2013-07-29 05:24:00,74.4,71.6,29.94,SW,225,0.0,0.0,91,0.00,,,0.00,WSDL version 420,2013-07-29 09:24:00,
2013-07-29 05:29:00,74.3,71.5,29.97,SW,225,0.0,0.0,91,0.00,,,0.00,WSDL version 420,2013-07-29 09:29:00,
2013-07-29 05:34:00,74.3,71.5,29.97,SW,225,0.0,0.0,91,0.00,,,0.00,WSDL version 420,2013-07-29 09:34:00,
2013-07-29 05:39:00,74.1,71.4,29.97,SW,225,0.0,0.0,91,0.00,,,0.00,WSDL version 420,2013-07-29 09:39:00,
2013-07-29 05:44:00,74.1,71.4,29.94,SW,225,0.0,0.0,91,0.00,,,0.00,WSDL version 420,2013-07-29 09:44:00,
2013-07-29 05:49:00,74.1,71.4,29.94,SW,225,0.0,0.0,91,0.00,,,0.00,WSDL version 420,2013-07-29 09:49:00,
2013-07-29 05:54:00,74.1,71.6,29.94,SW,225,0.0,0.0,92,0.00,,,0.00,WSDL version 420,2013-07-29 09:54:00,
2013-07-29 05:59:00,74.1,71.7,29.97,SW,225,0.0,0.0,92,0.00,,,0.00,WSDL version 420,2013-07-29 09:59:00,
2013-07-29 06:04:00,74.1,71.7,29.97,SW,225,0.0,0.0,92,0.00,,,0.00,WSDL version 420,2013-07-29 10:04:00,
2013-07-29 06:09:00,74.0,71.6,29.97,SW,225,0.0,0.0,92,0.00,,,0.00,WSDL version 420,2013-07-29 10:09:00,
2013-07-29 06:14:00,74.0,71.6,29.97,SW,225,0.0,0.0,92,0.00,,,0.00,WSDL version 420,2013-07-29 10:14:00,
2013-07-29 06:21:00,74.1,71.7,29.97,SW,225,0.0,0.0,92,0.00,,,0.00,WSDL version 420,2013-07-29 10:21:00,
2013-07-29 06:28:00,74.0,71.6,29.97,SW,225,0.0,0.0,92,0.00,,,0.00,WSDL version 420,2013-07-29 10:28:00,
2013-07-29 06:33:00,73.9,71.5,29.97,SW,225,0.0,0.0,92,0.00,,,0.00,WSDL version 420,2013-07-29 10:33:00,
2013-07-29 06:38:00,73.9,71.5,29.97,SW,225,0.0,0.0,92,0.00,,,0.00,WSDL version 420,2013-07-29 10:38:00,
2013-07-29 06:43:00,73.9,71.5,29.97,SW,225,0.0,0.0,92,0.00,,,0.00,WSDL version 420,2013-07-29 10:43:00,
2013-07-29 06:48:00,73.8,71.4,29.97,SW,225,0.0,0.0,92,0.00,,,0.00,WSDL version 420,2013-07-29 10:48:00,
2013-07-29 06:53:00,73.8,71.4,29.97,SW,225,0.0,0.0,92,0.00,,,0.00,WSDL version 420,2013-07-29 10:53:00,
2013-07-29 06:58:00,73.9,71.5,29.94,SW,225,0.0,0.0,92,0.00,,,0.00,WSDL version 420,2013-07-29 10:58:00,
2013-07-29 07:05:00,74.1,71.8,29.94,SW,225,0.0,0.0,93,0.00,,,0.00,WSDL version 420,2013-07-29 11:05:00,
2013-07-29 07:10:00,74.3,72.2,29.94,SW,225,0.0,0.0,93,0.00,,,0.00,WSDL version 420,2013-07-29 11:10:00,
2013-07-29 07:15:00,74.4,72.3,29.97,SW,225,0.0,0.0,93,0.00,,,0.00,WSDL version 420,2013-07-29 11:15:00,
2013-07-29 07:20:00,74.6,72.6,29.97,SW,225,0.0,0.0,93,0.00,,,0.00,WSDL version 420,2013-07-29 11:20:00,
2013-07-29 07:25:00,74.8,72.8,29.97,SW,225,0.0,0.0,93,0.00,,,0.00,WSDL version 420,2013-07-29 11:25:00,
2013-07-29 07:32:00,75.3,73.2,29.97,SW,225,0.0,0.0,93,0.00,,,0.00,WSDL version 420,2013-07-29 11:32:00,
2013-07-29 07:37:00,75.6,73.5,29.97,SW,225,0.0,0.0,93,0.00,,,0.00,WSDL version 420,2013-07-29 11:37:00,
2013-07-29 07:42:00,76.0,73.9,29.97,SW,225,0.0,0.0,93,0.00,,,0.00,WSDL version 420,2013-07-29 11:42:00,
2013-07-29 07:47:00,76.5,74.5,30.00,SW,225,0.0,0.0,93,0.00,,,0.00,WSDL version 420,2013-07-29 11:47:00,
2013-07-29 07:54:00,77.2,74.7,30.00,NNE,23,0.0,0.0,92,0.00,,,0.00,WSDL version 420,2013-07-29 11:54:00,
2013-07-29 07:59:00,77.7,75.5,30.00,North,360,0.0,0.0,92,0.00,,,0.00,WSDL version 420,2013-07-29 11:59:00,
2013-07-29 08:04:00,78.2,75.8,30.00,North,360,0.0,0.0,92,0.00,,,0.00,WSDL version 420,2013-07-29 12:04:00,
2013-07-29 08:09:00,78.9,76.4,30.00,North,360,0.0,0.0,92,0.00,,,0.00,WSDL version 420,2013-07-29 12:09:00,
2013-07-29 08:14:00,79.8,76.9,30.00,North,360,0.0,0.0,91,0.00,,,0.00,WSDL version 420,2013-07-29 12:14:00,
2013-07-29 08:19:00,80.2,77.1,30.00,North,360,0.0,0.0,90,0.00,,,0.00,WSDL version 420,2013-07-29 12:19:00,
2013-07-29 08:26:00,81.2,77.6,30.00,NE,45,0.0,0.0,89,0.00,,,0.00,WSDL version 420,2013-07-29 12:26:00,
2013-07-29 08:31:00,82.7,78.6,30.03,NE,51,1.1,2.9,86,0.00,,,0.00,WSDL version 420,2013-07-29 12:31:00,
2013-07-29 08:36:00,83.3,77.9,30.03,NNE,23,0.0,2.9,82,0.00,,,0.00,WSDL version 420,2013-07-29 12:36:00,
2013-07-29 08:41:00,83.4,76.4,30.03,ENE,71,0.0,0.9,79,0.00,,,0.00,WSDL version 420,2013-07-29 12:41:00,
2013-07-29 08:46:00,83.8,76.4,30.00,East,90,0.0,2.5,78,0.00,,,0.00,WSDL version 420,2013-07-29 12:46:00,
2013-07-29 08:51:00,85.3,77.8,30.00,ENE,71,1.3,2.7,78,0.00,,,0.00,WSDL version 420,2013-07-29 12:51:00,
2013-07-29 08:56:00,87.1,77.5,30.00,NW,325,2.7,4.0,71,0.00,,,0.00,WSDL version 420,2013-07-29 12:56:00,
2013-07-29 09:02:00,89.1,77.0,30.00,ESE,104,0.3,4.0,67,0.00,,,0.00,WSDL version 420,2013-07-29 13:02:00,
2013-07-29 09:07:00,90.9,77.7,30.00,East,79,1.8,3.6,63,0.00,,,0.00,WSDL version 420,2013-07-29 13:07:00,
2013-07-29 09:12:00,91.2,76.4,30.00,East,84,2.5,3.6,61,0.00,,,0.00,WSDL version 420,2013-07-29 13:12:00,
2013-07-29 09:17:00,92.0,75.9,30.03,SE,132,0.7,3.6,58,0.00,,,0.00,WSDL version 420,2013-07-29 13:17:00,
2013-07-29 09:22:00,92.8,75.7,30.03,SE,135,1.6,3.6,58,0.00,,,0.00,WSDL version 420,2013-07-29 13:22:00,
2013-07-29 09:27:00,93.1,75.7,30.03,ENE,68,0.0,3.6,56,0.00,,,0.00,WSDL version 420,2013-07-29 13:27:00,
2013-07-29 09:34:00,92.8,73.5,30.03,SE,143,0.9,3.4,54,0.00,,,0.00,WSDL version 420,2013-07-29 13:34:00,
2013-07-29 09:39:00,92.8,73.1,30.03,ENE,60,0.2,2.5,52,0.00,,,0.00,WSDL version 420,2013-07-29 13:39:00,
2013-07-29 09:44:00,92.0,72.3,30.03,SSE,149,1.7,3.6,53,0.00,,,0.00,WSDL version 420,2013-07-29 13:44:00,
2013-07-29 09:49:00,91.3,71.6,30.03,SSW,203,0.7,3.6,53,0.00,,,0.00,WSDL version 420,2013-07-29 13:49:00,
2013-07-29 09:54:00,91.3,72.2,30.03,East,100,0.4,2.9,54,0.00,,,0.00,WSDL version 420,2013-07-29 13:54:00,
2013-07-29 09:59:00,91.5,71.6,30.03,SSE,161,1.8,3.1,53,0.00,,,0.00,WSDL version 420,2013-07-29 13:59:00,
2013-07-29 10:06:00,92.4,72.3,30.03,East,101,1.8,4.0,52,0.00,,,0.00,WSDL version 420,2013-07-29 14:06:00,
2013-07-29 10:11:00,92.3,71.6,30.03,East,84,3.4,4.9,49,0.00,,,0.00,WSDL version 420,2013-07-29 14:11:00,
2013-07-29 10:21:00,91.1,70.7,30.03,East,90,2.3,5.4,51,0.00,,,0.00,WSDL version 420,2013-07-29 14:21:00,
2013-07-29 10:31:00,91.5,72.0,30.03,SSE,161,1.6,3.6,53,0.00,,,0.00,WSDL version 420,2013-07-29 14:31:00,
2013-07-29 10:41:00,92.2,72.8,30.03,South,175,1.5,3.8,53,0.00,,,0.00,WSDL version 420,2013-07-29 14:41:00,
2013-07-29 10:46:00,92.5,73.1,30.03,ESE,116,1.0,3.8,53,0.00,,,0.00,WSDL version 420,2013-07-29 14:46:00,
2013-07-29 10:51:00,92.7,73.2,30.03,NW,321,0.6,3.8,53,0.00,,,0.00,WSDL version 420,2013-07-29 14:51:00,
2013-07-29 10:56:00,92.8,73.2,30.03,South,180,2.5,5.6,53,0.00,,,0.00,WSDL version 420,2013-07-29 14:56:00,
2013-07-29 11:01:00,92.9,73.1,30.03,SE,125,1.7,5.6,52,0.00,,,0.00,WSDL version 420,2013-07-29 15:01:00,
2013-07-29 11:08:00,92.4,72.1,30.03,SSE,152,1.2,3.6,52,0.00,,,0.00,WSDL version 420,2013-07-29 15:08:00,
2013-07-29 11:13:00,92.6,72.2,30.03,NE,55,2.4,3.8,51,0.00,,,0.00,WSDL version 420,2013-07-29 15:13:00,
2013-07-29 11:18:00,92.3,71.3,30.03,SSE,155,1.6,3.8,52,0.00,,,0.00,WSDL version 420,2013-07-29 15:18:00,
2013-07-29 11:23:00,92.6,72.3,30.03,ENE,64,1.6,4.7,49,0.00,,,0.00,WSDL version 420,2013-07-29 15:23:00,
2013-07-29 11:28:00,92.4,69.6,30.03,East,79,1.2,4.7,48,0.00,,,0.00,WSDL version 420,2013-07-29 15:28:00,
2013-07-29 11:33:00,92.6,70.7,30.03,NE,48,2.5,3.6,49,0.00,,,0.00,WSDL version 420,2013-07-29 15:33:00,
2013-07-29 11:38:00,92.7,70.6,30.03,NNE,14,2.5,4.9,50,0.00,,,0.00,WSDL version 420,2013-07-29 15:38:00,
2013-07-29 11:43:00,92.7,71.4,30.00,NE,45,1.9,4.9,50,0.00,,,0.00,WSDL version 420,2013-07-29 15:43:00,
2013-07-29 11:48:00,92.1,69.3,30.00,NNE,29,2.0,4.7,48,0.00,,,0.00,WSDL version 420,2013-07-29 15:48:00,
2013-07-29 11:53:00,91.8,69.4,30.00,ENE,60,1.2,4.7,48,0.00,,,0.00,WSDL version 420,2013-07-29 15:53:00,
2013-07-29 12:05:00,91.8,70.6,30.03,SE,135,0.0,3.1,51,0.00,,,0.00,WSDL version 420,2013-07-29 16:05:00,
2013-07-29 12:10:00,92.5,71.9,30.03,SE,133,1.8,3.4,52,0.00,,,0.00,WSDL version 420,2013-07-29 16:10:00,
2013-07-29 12:17:00,92.4,71.1,30.03,NE,38,1.2,3.4,49,0.00,,,0.00,WSDL version 420,2013-07-29 16:17:00,
2013-07-29 12:24:00,92.4,70.0,30.03,North,351,2.4,3.8,49,0.00,,,0.00,WSDL version 420,2013-07-29 16:24:00,
2013-07-29 12:29:00,92.4,69.9,30.03,NE,42,1.7,3.8,49,0.00,,,0.00,WSDL version 420,2013-07-29 16:29:00,
2013-07-29 12:34:00,93.2,70.3,30.03,NE,56,2.5,4.0,46,0.00,,,0.00,WSDL version 420,2013-07-29 16:34:00,
2013-07-29 12:39:00,93.3,67.8,30.03,ENE,64,3.9,4.9,41,0.00,,,0.00,WSDL version 420,2013-07-29 16:39:00,
2013-07-29 12:44:00,93.2,67.5,30.03,SSW,200,2.9,6.3,46,0.00,,,0.00,WSDL version 420,2013-07-29 16:44:00,
2013-07-29 12:49:00,93.5,67.7,30.03,NNE,26,2.4,6.3,43,0.00,,,0.00,WSDL version 420,2013-07-29 16:49:00,
2013-07-29 12:56:00,94.1,68.2,30.03,WSW,254,2.7,4.0,43,0.00,,,0.00,WSDL version 420,2013-07-29 16:56:00,
2013-07-29 13:05:00,95.0,69.3,30.03,NE,51,2.0,4.3,42,0.00,,,0.00,WSDL version 420,2013-07-29 17:05:00,
2013-07-29 13:10:00,94.6,67.9,30.03,ESE,113,1.8,4.3,43,0.00,,,0.00,WSDL version 420,2013-07-29 17:10:00,
2013-07-29 13:15:00,94.5,69.0,30.03,SSE,148,2.8,4.3,44,0.00,,,0.00,WSDL version 420,2013-07-29 17:15:00,
2013-07-29 13:20:00,95.5,69.4,30.03,East,101,1.9,4.3,43,0.00,,,0.00,WSDL version 420,2013-07-29 17:20:00,
2013-07-29 13:25:00,95.9,67.7,30.03,ENE,68,2.3,3.6,39,0.00,,,0.00,WSDL version 420,2013-07-29 17:25:00,
2013-07-29 13:30:00,95.6,66.5,30.03,ENE,65,3.3,5.4,38,0.00,,,0.00,WSDL version 420,2013-07-29 17:30:00,
2013-07-29 13:40:00,94.4,67.0,30.03,SSW,195,2.2,7.4,42,0.00,,,0.00,WSDL version 420,2013-07-29 17:40:00,
2013-07-29 13:45:00,93.3,66.4,30.03,SE,131,2.0,4.3,42,0.00,,,0.00,WSDL version 420,2013-07-29 17:45:00,
2013-07-29 13:50:00,92.5,67.2,30.03,NE,56,2.7,5.4,44,0.00,,,0.00,WSDL version 420,2013-07-29 17:50:00,
2013-07-29 13:55:00,92.5,67.4,30.03,ENE,59,3.5,5.4,44,0.00,,,0.00,WSDL version 420,2013-07-29 17:55:00,
2013-07-29 14:00:00,92.6,68.1,30.06,South,183,3.8,8.5,46,0.00,,,0.00,WSDL version 420,2013-07-29 18:00:00,
2013-07-29 14:05:00,93.4,69.8,30.06,SSW,206,3.7,8.5,46,0.00,,,0.00,WSDL version 420,2013-07-29 18:05:00,
2013-07-29 14:10:00,91.8,66.8,30.06,ENE,68,5.3,7.8,44,0.00,,,0.00,WSDL version 420,2013-07-29 18:10:00,
2013-07-29 14:17:00,90.5,66.9,30.03,ENE,59,2.6,7.8,46,0.00,,,0.00,WSDL version 420,2013-07-29 18:17:00,
2013-07-29 14:27:00,89.3,66.6,30.03,NE,42,3.9,7.4,47,0.00,,,0.00,WSDL version 420,2013-07-29 18:27:00,
2013-07-29 14:38:00,88.3,66.7,30.03,NNE,29,3.5,5.8,49,0.00,,,0.00,WSDL version 420,2013-07-29 18:38:00,
2013-07-29 14:43:00,88.0,66.9,30.03,East,99,3.3,5.8,49,0.00,,,0.00,WSDL version 420,2013-07-29 18:43:00,
2013-07-29 14:48:00,88.0,67.0,30.03,East,79,2.5,4.9,51,0.00,,,0.00,WSDL version 420,2013-07-29 18:48:00,
2013-07-29 14:53:00,88.0,67.9,30.03,ENE,64,2.5,4.9,51,0.00,,,0.00,WSDL version 420,2013-07-29 18:53:00,
2013-07-29 14:58:00,87.8,67.8,29.97,East,79,2.1,4.7,52,0.00,,,0.00,WSDL version 420,2013-07-29 18:58:00,
2013-07-29 15:03:00,87.8,68.5,29.97,East,84,2.0,3.8,53,0.00,,,0.00,WSDL version 420,2013-07-29 19:03:00,
2013-07-29 15:08:00,87.8,68.8,29.97,NE,39,2.6,4.3,53,0.00,,,0.00,WSDL version 420,2013-07-29 19:08:00,
2013-07-29 15:13:00,87.7,69.0,30.00,East,101,2.6,4.3,54,0.00,,,0.00,WSDL version 420,2013-07-29 19:13:00,
2013-07-29 15:18:00,87.6,69.3,30.00,SSW,206,1.6,4.3,55,0.00,,,0.00,WSDL version 420,2013-07-29 19:18:00,
2013-07-29 15:25:00,87.7,69.4,30.00,NNW,334,2.5,3.8,55,0.00,,,0.00,WSDL version 420,2013-07-29 19:25:00,
2013-07-29 15:30:00,87.8,69.4,30.03,ENE,62,2.3,3.8,55,0.00,,,0.00,WSDL version 420,2013-07-29 19:30:00,
2013-07-29 15:41:00,87.7,69.7,30.03,ENE,75,2.3,5.8,55,0.00,,,0.00,WSDL version 420,2013-07-29 19:41:00,
2013-07-29 15:46:00,87.8,69.7,30.00,ESE,113,3.4,5.8,56,0.00,,,0.00,WSDL version 420,2013-07-29 19:46:00,
2013-07-29 15:58:00,87.4,69.9,30.00,East,83,3.3,7.6,57,0.00,,,0.00,WSDL version 420,2013-07-29 19:58:00,
2013-07-29 16:03:00,87.3,69.5,30.00,NE,48,2.5,7.6,55,0.00,,,0.00,WSDL version 420,2013-07-29 20:03:00,
2013-07-29 16:08:00,87.1,69.0,30.00,ENE,68,3.1,5.4,55,0.00,,,0.00,WSDL version 420,2013-07-29 20:08:00,
2013-07-29 16:13:00,87.1,69.1,30.00,ENE,77,1.8,5.4,56,0.00,,,0.00,WSDL version 420,2013-07-29 20:13:00,
2013-07-29 16:18:00,87.1,69.7,30.00,East,93,2.8,4.0,57,0.00,,,0.00,WSDL version 420,2013-07-29 20:18:00,
2013-07-29 16:23:00,86.9,69.9,30.00,East,87,0.9,4.0,57,0.00,,,0.00,WSDL version 420,2013-07-29 20:23:00,
2013-07-29 16:30:00,86.9,70.4,30.03,ENE,62,2.1,4.0,58,0.00,,,0.00,WSDL version 420,2013-07-29 20:30:00,
2013-07-29 16:35:00,86.8,70.3,30.03,East,90,1.3,3.4,58,0.00,,,0.00,WSDL version 420,2013-07-29 20:35:00,
2013-07-29 16:45:00,86.5,70.5,30.00,NE,45,0.0,3.8,59,0.00,,,0.00,WSDL version 420,2013-07-29 20:45:00,
2013-07-29 16:50:00,86.4,70.7,30.00,East,82,2.2,3.8,60,0.00,,,0.00,WSDL version 420,2013-07-29 20:50:00,
2013-07-29 16:55:00,86.2,70.7,30.00,ENE,64,3.1,4.7,60,0.00,,,0.00,WSDL version 420,2013-07-29 20:55:00,
2013-07-29 17:03:00,86.0,71.0,30.00,East,87,2.9,5.6,61,0.00,,,0.00,WSDL version 420,2013-07-29 21:03:00,
2013-07-29 17:08:00,85.7,71.5,30.00,ENE,77,2.2,5.6,63,0.00,,,0.00,WSDL version 420,2013-07-29 21:08:00,
2013-07-29 17:13:00,85.6,71.5,30.03,East,94,3.6,4.3,63,0.00,,,0.00,WSDL version 420,2013-07-29 21:13:00,
2013-07-29 17:18:00,85.4,71.3,30.03,ESE,104,1.7,6.3,63,0.00,,,0.00,WSDL version 420,2013-07-29 21:18:00,
2013-07-29 17:23:00,85.2,71.2,30.03,West,270,2.3,6.3,63,0.00,,,0.00,WSDL version 420,2013-07-29 21:23:00,
2013-07-29 17:28:00,85.3,71.3,30.03,SE,129,1.4,3.6,63,0.00,,,0.00,WSDL version 420,2013-07-29 21:28:00,
2013-07-29 17:33:00,85.3,71.3,30.03,South,176,1.2,3.6,63,0.00,,,0.00,WSDL version 420,2013-07-29 21:33:00,
2013-07-29 17:38:00,85.4,71.3,30.03,SE,143,0.6,3.6,63,0.00,,,0.00,WSDL version 420,2013-07-29 21:38:00,
2013-07-29 17:43:00,85.5,71.4,30.00,NE,55,1.2,3.4,63,0.00,,,0.00,WSDL version 420,2013-07-29 21:43:00,
2013-07-29 17:48:00,85.6,71.5,30.00,ESE,113,1.3,3.1,63,0.00,,,0.00,WSDL version 420,2013-07-29 21:48:00,
2013-07-29 17:53:00,85.6,71.6,30.00,SE,125,0.0,3.1,63,0.00,,,0.00,WSDL version 420,2013-07-29 21:53:00,
2013-07-29 17:58:00,85.8,71.7,30.00,ENE,64,2.1,3.4,63,0.00,,,0.00,WSDL version 420,2013-07-29 21:58:00,
2013-07-29 18:07:00,85.6,71.6,30.00,NE,45,1.9,4.3,63,0.00,,,0.00,WSDL version 420,2013-07-29 22:07:00,
2013-07-29 18:14:00,85.6,71.1,29.97,East,90,1.1,4.3,62,0.00,,,0.00,WSDL version 420,2013-07-29 22:14:00,
2013-07-29 18:19:00,85.6,71.2,29.97,ENE,68,2.9,4.0,62,0.00,,,0.00,WSDL version 420,2013-07-29 22:19:00,
2013-07-29 18:26:00,85.4,70.9,29.97,ENE,64,2.1,4.3,62,0.00,,,0.00,WSDL version 420,2013-07-29 22:26:00,
2013-07-29 18:31:00,85.3,70.8,29.97,ENE,64,1.2,2.9,62,0.00,,,0.00,WSDL version 420,2013-07-29 22:31:00,
2013-07-29 18:36:00,85.2,70.7,29.97,ESE,113,1.9,2.9,62,0.00,,,0.00,WSDL version 420,2013-07-29 22:36:00,
2013-07-29 18:41:00,85.1,70.6,29.97,ENE,71,1.1,2.9,62,0.00,,,0.00,WSDL version 420,2013-07-29 22:41:00,
2013-07-29 18:46:00,85.0,70.6,29.97,East,95,2.8,4.3,62,0.00,,,0.00,WSDL version 420,2013-07-29 22:46:00,
2013-07-29 18:51:00,84.9,70.8,29.97,ESE,115,0.2,4.3,63,0.00,,,0.00,WSDL version 420,2013-07-29 22:51:00,
2013-07-29 18:56:00,84.9,70.9,29.97,ENE,75,1.6,2.7,63,0.00,,,0.00,WSDL version 420,2013-07-29 22:56:00,
2013-07-29 19:01:00,84.7,70.8,30.00,NNE,15,0.1,2.7,63,0.00,,,0.00,WSDL version 420,2013-07-29 23:01:00,
2013-07-29 19:06:00,84.6,71.0,30.00,SE,135,0.0,2.0,64,0.00,,,0.00,WSDL version 420,2013-07-29 23:06:00,
2013-07-29 19:14:00,84.3,71.0,30.03,ENE,68,1.3,2.5,65,0.00,,,0.00,WSDL version 420,2013-07-29 23:14:00,
2013-07-29 19:19:00,84.2,71.2,30.03,ENE,77,0.0,2.5,65,0.00,,,0.00,WSDL version 420,2013-07-29 23:19:00,
2013-07-29 19:24:00,84.1,71.1,30.03,ESE,113,1.1,2.7,65,0.00,,,0.00,WSDL version 420,2013-07-29 23:24:00,
2013-07-29 19:33:00,83.8,70.8,30.03,ENE,64,0.6,2.7,65,0.00,,,0.00,WSDL version 420,2013-07-29 23:33:00,
2013-07-29 19:40:00,83.7,70.5,30.03,NE,48,0.3,2.7,64,0.00,,,0.00,WSDL version 420,2013-07-29 23:40:00,
2013-07-29 19:45:00,83.5,70.1,30.03,NE,55,0.8,2.2,64,0.00,,,0.00,WSDL version 420,2013-07-29 23:45:00,
2013-07-29 19:52:00,83.3,69.9,30.03,ESE,104,0.0,1.6,64,0.00,,,0.00,WSDL version 420,2013-07-29 23:52:00,
2013-07-29 19:57:00,83.1,69.9,30.03,East,100,0.0,0.0,65,0.00,,,0.00,WSDL version 420,2013-07-29 23:57:00,
2013-07-29 20:02:00,82.9,69.9,30.03,ENE,59,0.0,0.0,65,0.00,,,0.00,WSDL version 420,2013-07-30 00:02:00,
2013-07-29 20:07:00,82.7,69.7,30.03,East,83,0.4,1.3,65,0.00,,,0.00,WSDL version 420,2013-07-30 00:07:00,
2013-07-29 20:14:00,82.4,69.5,30.03,ENE,68,0.0,1.3,65,0.00,,,0.00,WSDL version 420,2013-07-30 00:14:00,
2013-07-29 20:21:00,82.2,69.7,30.03,ENE,65,0.0,2.0,66,0.00,,,0.00,WSDL version 420,2013-07-30 00:21:00,
2013-07-29 20:26:00,82.0,69.6,30.03,ENE,68,0.2,2.0,66,0.00,,,0.00,WSDL version 420,2013-07-30 00:26:00,
2013-07-29 20:31:00,81.9,69.5,30.03,East,82,0.0,2.0,66,0.00,,,0.00,WSDL version 420,2013-07-30 00:31:00,
2013-07-29 20:39:00,81.7,69.2,30.03,East,90,0.0,2.0,66,0.00,,,0.00,WSDL version 420,2013-07-30 00:39:00,
2013-07-29 20:44:00,81.7,69.5,30.03,ENE,68,0.0,2.0,67,0.00,,,0.00,WSDL version 420,2013-07-30 00:44:00,
2013-07-29 20:51:00,81.5,69.5,30.03,ENE,76,0.0,0.0,67,0.00,,,0.00,WSDL version 420,2013-07-30 00:51:00,
2013-07-29 20:58:00,81.2,69.4,30.03,East,90,0.0,0.0,68,0.00,,,0.00,WSDL version 420,2013-07-30 00:58:00,
2013-07-29 21:03:00,81.0,69.4,30.03,East,90,0.0,0.0,68,0.00,,,0.00,WSDL version 420,2013-07-30 01:03:00,
2013-07-29 21:10:00,80.8,69.4,30.03,East,90,0.0,0.0,69,0.00,,,0.00,WSDL version 420,2013-07-30 01:10:00,
2013-07-29 21:15:00,80.6,69.5,30.03,East,90,0.0,0.0,69,0.00,,,0.00,WSDL version 420,2013-07-30 01:15:00,
2013-07-29 21:20:00,80.5,69.9,30.03,East,90,0.0,0.0,71,0.00,,,0.00,WSDL version 420,2013-07-30 01:20:00,
2013-07-29 21:25:00,80.4,70.1,30.03,East,90,0.0,0.0,71,0.00,,,0.00,WSDL version 420,2013-07-30 01:25:00,
2013-07-29 21:30:00,80.1,70.0,30.06,East,90,0.0,0.0,71,0.00,,,0.00,WSDL version 420,2013-07-30 01:30:00,
2013-07-29 21:40:00,79.9,70.1,30.06,East,90,0.0,0.0,72,0.00,,,0.00,WSDL version 420,2013-07-30 01:40:00,
2013-07-29 21:45:00,79.7,70.2,30.03,East,90,0.0,0.0,73,0.00,,,0.00,WSDL version 420,2013-07-30 01:45:00,
2013-07-29 21:50:00,79.7,70.4,30.03,East,90,0.0,0.0,74,0.00,,,0.00,WSDL version 420,2013-07-30 01:50:00,
2013-07-29 21:59:00,79.4,70.6,30.03,East,90,0.0,0.0,75,0.00,,,0.00,WSDL version 420,2013-07-30 01:59:00,
2013-07-29 22:04:00,79.3,70.7,30.03,East,90,0.0,0.0,75,0.00,,,0.00,WSDL version 420,2013-07-30 02:04:00,
2013-07-29 22:10:00,79.3,71.0,30.03,East,90,0.0,0.0,76,0.00,,,0.00,WSDL version 420,2013-07-30 02:10:00,
2013-07-29 22:15:00,79.2,70.9,30.03,East,90,0.0,0.0,76,0.00,,,0.00,WSDL version 420,2013-07-30 02:15:00,
2013-07-29 22:20:00,79.1,71.0,30.03,East,90,0.0,0.0,77,0.00,,,0.00,WSDL version 420,2013-07-30 02:20:00,
2013-07-29 22:25:00,79.0,71.2,30.03,East,99,0.0,0.0,77,0.00,,,0.00,WSDL version 420,2013-07-30 02:25:00,
2013-07-29 22:30:00,79.0,71.2,30.06,East,90,0.0,0.0,77,0.00,,,0.00,WSDL version 420,2013-07-30 02:30:00,
2013-07-29 22:35:00,79.0,71.2,30.06,East,90,0.0,0.0,77,0.00,,,0.00,WSDL version 420,2013-07-30 02:35:00,
2013-07-29 22:40:00,79.0,71.2,30.06,East,90,0.0,0.0,77,0.00,,,0.00,WSDL version 420,2013-07-30 02:40:00,
2013-07-29 22:45:00,79.0,71.2,30.06,East,90,0.0,0.0,77,0.00,,,0.00,WSDL version 420,2013-07-30 02:45:00,
2013-07-29 22:50:00,79.0,71.2,30.06,East,90,0.0,0.0,77,0.00,,,0.00,WSDL version 420,2013-07-30 02:50:00,
2013-07-29 22:55:00,79.0,71.2,30.06,East,90,0.0,0.0,77,0.00,,,0.00,WSDL version 420,2013-07-30 02:55:00,
2013-07-29 23:00:00,78.9,71.1,30.03,East,90,0.0,0.0,77,0.00,,,0.00,WSDL version 420,2013-07-30 03:00:00,
2013-07-29 23:05:00,78.8,71.1,30.03,East,90,0.0,0.0,78,0.00,,,0.00,WSDL version 420,2013-07-30 03:05:00,
2013-07-29 23:10:00,78.8,71.4,30.03,East,90,0.0,0.0,78,0.00,,,0.00,WSDL version 420,2013-07-30 03:10:00,
2013-07-29 23:15:00,78.8,71.4,30.03,East,90,0.0,0.0,78,0.00,,,0.00,WSDL version 420,2013-07-30 03:15:00,
2013-07-29 23:20:00,78.6,71.6,30.03,NE,45,0.0,0.0,79,-99.99,,,-99.99,WSDL version 420,2013-07-30 03:20:00,
2013-07-29 23:27:00,78.4,71.4,30.06,NNE,23,0.0,0.0,79,-99.99,,,-99.99,WSDL version 420,2013-07-30 03:27:00,
2013-07-29 23:32:00,78.3,71.2,30.06,North,360,0.0,0.0,79,0.00,,,0.00,WSDL version 420,2013-07-30 03:32:00,
2013-07-29 23:39:00,78.3,71.6,30.06,North,360,0.0,0.0,80,0.00,,,0.00,WSDL version 420,2013-07-30 03:39:00,
2013-07-29 23:50:00,78.1,71.7,30.06,North,360,0.0,0.0,81,0.00,,,0.00,WSDL version 420,2013-07-30 03:50:00,
2013-07-29 23:55:00,78.0,71.9,30.06,North,360,0.0,0.0,82,0.00,,,0.00,WSDL version 420,2013-07-30 03:55:00,